createdAt,value
2022-09-28T00:01:17.118Z,12.10
2022-09-28T00:03:46.963Z,11.18
2022-09-28T00:06:18.628Z,10.68
2022-09-28T00:11:16.201Z,11.80
2022-09-28T00:13:44.662Z,11.90
2022-09-28T00:16:14.980Z,11.63
2022-09-28T00:18:43.156Z,11.68
2022-09-28T00:21:14.780Z,11.25
2022-09-28T00:26:25.586Z,10.30
2022-09-28T00:28:54.276Z,11.05
2022-09-28T00:31:23.820Z,9.32
2022-09-28T00:33:53.005Z,9.63
2022-09-28T00:36:28.267Z,9.73
2022-09-28T00:39:05.420Z,10.30
2022-09-28T00:41:34.105Z,9.20
2022-09-28T00:44:43.259Z,9.60
2022-09-28T00:47:34.869Z,9.13
2022-09-28T00:52:38.655Z,8.73
2022-09-28T00:55:12.763Z,8.55
2022-09-28T00:57:49.922Z,8.35
2022-09-28T01:00:19.397Z,8.95
2022-09-28T01:02:49.182Z,9.65
2022-09-28T01:05:25.351Z,10.15
2022-09-28T01:07:57.490Z,10.73
2022-09-28T01:10:25.686Z,10.63
2022-09-28T01:12:53.779Z,10.02
2022-09-28T01:15:22.917Z,9.80
2022-09-28T01:17:58.541Z,9.63
2022-09-28T01:20:51.271Z,9.18
2022-09-28T01:23:42.579Z,9.85
2022-09-28T01:28:49.416Z,8.48
2022-09-28T01:31:19.223Z,8.27
2022-09-28T01:33:49.872Z,7.63
2022-09-28T01:36:22.405Z,7.23
2022-09-28T01:38:52.774Z,6.78
2022-09-28T01:41:23.917Z,6.00
2022-09-28T01:43:56.226Z,6.50
2022-09-28T01:46:28.257Z,6.45
2022-09-28T01:48:58.492Z,6.07
2022-09-28T01:51:33.576Z,5.53
2022-09-28T01:54:14.277Z,5.60
2022-09-28T01:56:46.623Z,5.00
2022-09-28T01:59:16.671Z,5.47
2022-09-28T02:01:48.491Z,4.72
2022-09-28T02:04:19.875Z,4.85
2022-09-28T02:06:50.545Z,5.63
2022-09-28T02:09:23.027Z,4.97
2022-09-28T02:11:56.224Z,5.20
2022-09-28T02:14:25.371Z,4.70
2022-09-28T02:16:55.184Z,4.78
2022-09-28T02:19:25.935Z,5.10
2022-09-28T02:21:59.047Z,4.45
2022-09-28T02:24:37.104Z,4.25
2022-09-28T02:27:10.849Z,3.97
2022-09-28T02:29:38.864Z,3.92
2022-09-28T02:32:07.176Z,4.00
2022-09-28T02:34:36.732Z,3.72
2022-09-28T02:37:05.095Z,3.30
2022-09-28T02:39:33.648Z,3.38
2022-09-28T02:42:12.103Z,3.47
2022-09-28T02:44:54.798Z,3.50
2022-09-28T02:47:30.412Z,3.25
2022-09-28T02:50:04.540Z,3.30
2022-09-28T02:52:44.248Z,3.28
2022-09-28T02:55:21.880Z,3.55
2022-09-28T02:58:04.699Z,4.22
2022-09-28T03:00:34.240Z,3.72
2022-09-28T03:03:05.640Z,3.70
2022-09-28T03:05:40.052Z,3.97
2022-09-28T03:08:12.350Z,3.70
2022-09-28T03:10:44.570Z,3.58
2022-09-28T03:13:14.660Z,3.67
2022-09-28T03:15:48.631Z,3.85
2022-09-28T03:18:17.552Z,3.45
2022-09-28T03:20:45.919Z,3.35
2022-09-28T03:23:24.689Z,2.70
2022-09-28T03:25:53.849Z,2.90
2022-09-28T03:28:23.373Z,2.85
2022-09-28T03:30:51.675Z,3.03
2022-09-28T03:33:20.366Z,3.38
2022-09-28T03:35:49.629Z,2.78
2022-09-28T03:38:18.375Z,3.20
2022-09-28T03:40:47.031Z,3.05
2022-09-28T03:43:15.154Z,2.95
2022-09-28T03:45:44.682Z,2.75
2022-09-28T03:48:14.836Z,3.55
2022-09-28T03:50:42.967Z,3.40
2022-09-28T03:53:11.172Z,4.68
2022-09-28T03:55:39.470Z,4.72
2022-09-28T03:58:07.691Z,6.57
2022-09-28T04:00:35.886Z,6.13
2022-09-28T04:03:06.129Z,6.70
2022-09-28T04:05:34.274Z,6.10
2022-09-28T04:08:02.670Z,5.22
2022-09-28T04:10:31.227Z,5.28
2022-09-28T04:12:59.839Z,5.50
2022-09-28T04:15:27.845Z,5.25
2022-09-28T04:17:56.174Z,4.82
2022-09-28T04:20:25.825Z,5.40
2022-09-28T04:22:54.177Z,5.57
2022-09-28T04:25:22.428Z,5.63
2022-09-28T04:28:19.384Z,5.65
2022-09-28T04:30:47.903Z,6.55
2022-09-28T04:33:16.235Z,7.32
2022-09-28T04:35:47.215Z,7.53
2022-09-28T04:38:15.583Z,6.53
2022-09-28T04:40:43.903Z,6.97
2022-09-28T04:43:11.946Z,6.43
2022-09-28T04:45:40.184Z,6.00
2022-09-28T04:48:08.707Z,6.85
2022-09-28T04:50:36.798Z,6.07
2022-09-28T04:53:06.743Z,6.30
2022-09-28T04:55:34.815Z,6.68
2022-09-28T04:58:05.269Z,6.15
2022-09-28T05:00:36.035Z,5.38
2022-09-28T05:03:04.289Z,6.27
2022-09-28T05:05:32.365Z,5.85
2022-09-28T05:08:00.895Z,6.65
2022-09-28T05:10:30.342Z,7.93
2022-09-28T05:12:58.458Z,7.72
2022-09-28T05:15:26.698Z,8.50
2022-09-28T05:17:54.825Z,7.75
2022-09-28T05:20:23.065Z,7.00
2022-09-28T05:22:51.447Z,7.55
2022-09-28T05:25:19.839Z,7.18
2022-09-28T05:27:49.543Z,7.07
2022-09-28T05:30:19.076Z,5.53
2022-09-28T05:32:47.402Z,5.43
2022-09-28T05:35:15.419Z,5.60
2022-09-28T05:37:43.954Z,5.13
2022-09-28T05:40:12.791Z,4.97
2022-09-28T05:42:41.031Z,5.28
2022-09-28T05:45:11.505Z,5.32
2022-09-28T05:47:40.816Z,5.43
2022-09-28T05:50:12.001Z,5.00
2022-09-28T05:52:40.371Z,5.38
2022-09-28T05:55:09.465Z,5.38
2022-09-28T05:57:37.619Z,4.80
2022-09-28T06:00:08.132Z,5.00
2022-09-28T06:02:37.967Z,4.83
2022-09-28T06:05:07.527Z,5.00
2022-09-28T06:07:35.640Z,4.68
2022-09-28T06:10:03.649Z,4.78
2022-09-28T06:12:31.945Z,5.07
2022-09-28T06:15:00.833Z,5.13
2022-09-28T06:17:29.514Z,4.95
2022-09-28T06:19:59.306Z,4.25
2022-09-28T06:22:27.456Z,4.13
2022-09-28T06:24:55.653Z,4.10
2022-09-28T06:27:23.986Z,4.20
2022-09-28T06:29:52.214Z,4.15
2022-09-28T06:32:20.229Z,3.50
2022-09-28T06:34:50.744Z,3.47
2022-09-28T06:37:23.577Z,3.70
2022-09-28T06:39:52.215Z,2.85
2022-09-28T06:42:20.234Z,3.00
2022-09-28T06:44:48.362Z,2.78
2022-09-28T06:47:17.784Z,2.83
2022-09-28T06:49:51.488Z,3.05
2022-09-28T06:52:19.941Z,2.53
2022-09-28T06:54:49.537Z,2.50
2022-09-28T06:57:17.849Z,2.75
2022-09-28T06:59:46.159Z,2.42
2022-09-28T07:02:14.916Z,2.53
2022-09-28T07:04:43.429Z,2.60
2022-09-28T07:07:11.791Z,2.95
2022-09-28T07:09:44.944Z,3.30
2022-09-28T07:12:17.836Z,2.75
2022-09-28T07:14:48.226Z,2.40
2022-09-28T07:17:16.935Z,2.88
2022-09-28T07:19:45.329Z,2.60
2022-09-28T07:22:18.811Z,2.17
2022-09-28T07:24:49.081Z,1.90
2022-09-28T07:27:20.160Z,2.28
2022-09-28T07:29:48.242Z,2.65
2022-09-28T07:32:16.512Z,2.53
2022-09-28T07:34:44.771Z,2.03
2022-09-28T07:37:13.467Z,2.03
2022-09-28T07:39:59.709Z,2.20
2022-09-28T07:42:30.194Z,2.30
2022-09-28T07:44:59.269Z,1.50
2022-09-28T07:47:33.889Z,2.75
2022-09-28T07:50:03.365Z,2.33
2022-09-28T07:52:31.552Z,2.22
2022-09-28T07:55:03.329Z,1.70
2022-09-28T07:57:36.441Z,1.98
2022-09-28T08:00:07.251Z,1.38
2022-09-28T08:02:35.905Z,1.48
2022-09-28T08:05:04.365Z,1.30
2022-09-28T08:07:34.530Z,1.65
2022-09-28T08:10:02.920Z,1.30
2022-09-28T08:12:31.078Z,1.67
2022-09-28T08:15:01.389Z,1.83
2022-09-28T08:17:29.728Z,1.33
2022-09-28T08:20:15.297Z,1.90
2022-09-28T08:22:43.573Z,1.60
2022-09-28T08:25:11.928Z,1.23
2022-09-28T08:27:40.046Z,1.30
2022-09-28T08:30:11.348Z,1.92
2022-09-28T08:32:39.567Z,1.52
2022-09-28T08:35:08.223Z,1.23
2022-09-28T08:37:36.571Z,1.55
2022-09-28T08:40:05.307Z,1.67
2022-09-28T08:42:36.185Z,1.40
2022-09-28T08:47:59.028Z,1.17
2022-09-28T08:50:28.684Z,1.30
2022-09-28T08:53:00.725Z,1.20
2022-09-28T08:55:32.304Z,1.45
2022-09-28T08:58:03.051Z,1.20
2022-09-28T09:00:35.361Z,1.70
2022-09-28T09:03:07.252Z,1.40
2022-09-28T09:05:48.769Z,1.70
2022-09-28T09:08:42.331Z,1.58
2022-09-28T09:11:17.233Z,1.20
2022-09-28T09:14:14.946Z,1.23
2022-09-28T09:17:00.001Z,0.80
2022-09-28T09:19:36.827Z,0.93
2022-09-28T09:22:12.705Z,0.95
2022-09-28T09:24:48.977Z,0.90
2022-09-28T09:27:32.841Z,0.90
2022-09-28T09:30:06.305Z,1.00
2022-09-28T09:32:45.181Z,1.30
2022-09-28T09:35:32.074Z,1.20
2022-09-28T09:38:10.812Z,0.90
2022-09-28T09:40:58.843Z,0.90
2022-09-28T09:44:01.246Z,0.80
2022-09-28T09:46:35.544Z,0.98
2022-09-28T09:49:08.760Z,0.60
2022-09-28T09:51:44.226Z,1.10
2022-09-28T09:54:17.880Z,0.90
2022-09-28T09:56:50.217Z,0.90
2022-09-28T09:59:21.252Z,0.95
2022-09-28T10:01:49.786Z,0.85
2022-09-28T10:04:22.489Z,0.77
2022-09-28T10:06:54.055Z,0.70
2022-09-28T10:09:26.134Z,0.60
2022-09-28T10:11:54.749Z,0.70
2022-09-28T10:14:25.115Z,0.80
2022-09-28T10:16:54.399Z,0.60
2022-09-28T10:19:29.655Z,0.70
2022-09-28T10:22:02.680Z,0.68
2022-09-28T10:24:32.663Z,0.50
2022-09-28T10:27:05.986Z,0.60
2022-09-28T10:29:41.885Z,0.70
2022-09-28T10:32:20.632Z,0.70
2022-09-28T10:34:50.978Z,0.88
2022-09-28T10:37:20.914Z,0.88
2022-09-28T10:39:53.349Z,0.70
2022-09-28T10:42:23.959Z,0.80
2022-09-28T10:44:55.638Z,0.70
2022-09-28T10:47:25.465Z,0.95
2022-09-28T10:49:55.451Z,0.63
2022-09-28T10:52:38.892Z,0.75
2022-09-28T10:55:32.452Z,0.50
2022-09-28T10:58:01.185Z,0.60
2022-09-28T11:00:33.185Z,0.45
2022-09-28T11:03:01.515Z,0.70
2022-09-28T11:05:30.464Z,0.70
2022-09-28T11:08:01.766Z,0.90
2022-09-28T11:10:31.493Z,0.70
2022-09-28T11:13:01.008Z,0.57
2022-09-28T11:15:31.110Z,0.73
2022-09-28T11:18:19.509Z,0.90
2022-09-28T11:20:49.431Z,0.60
2022-09-28T11:23:21.956Z,1.20
2022-09-28T11:26:01.356Z,1.67
2022-09-28T11:28:33.299Z,0.77
2022-09-28T11:31:02.798Z,0.68
2022-09-28T11:33:34.228Z,0.60
2022-09-28T11:36:20.158Z,1.50
2022-09-28T11:38:55.373Z,0.90
2022-09-28T11:41:38.443Z,0.70
2022-09-28T11:44:22.904Z,0.90
2022-09-28T11:46:58.347Z,2.15
2022-09-28T11:49:32.702Z,1.60
2022-09-28T11:52:03.763Z,0.98
2022-09-28T11:54:40.100Z,1.45
2022-09-28T11:57:14.035Z,1.23
2022-09-28T11:59:51.541Z,0.70
2022-09-28T12:02:23.460Z,0.70
2022-09-28T12:04:55.408Z,1.02
2022-09-28T12:07:27.602Z,1.05
2022-09-28T12:10:00.055Z,0.88
2022-09-28T12:12:32.915Z,0.63
2022-09-28T12:15:04.717Z,1.05
2022-09-28T12:17:37.778Z,0.93
2022-09-28T12:20:14.133Z,1.00
2022-09-28T12:22:47.352Z,0.75
2022-09-28T12:25:20.962Z,0.90
2022-09-28T12:27:52.079Z,0.73
2022-09-28T12:30:21.305Z,0.77
2022-09-28T12:32:52.032Z,1.17
2022-09-28T12:35:28.821Z,0.90
2022-09-28T12:38:21.514Z,1.13
2022-09-28T12:40:54.603Z,0.75
2022-09-28T12:43:34.459Z,0.50
2022-09-28T12:46:32.614Z,0.80
2022-09-28T12:50:36.628Z,0.65
2022-09-28T12:52:30.329Z,0.93
2022-09-28T12:55:24.886Z,1.00
2022-09-28T12:58:01.421Z,1.00
2022-09-28T13:00:35.864Z,1.35
2022-09-28T13:03:31.559Z,1.17
2022-09-28T13:06:22.820Z,1.15
2022-09-28T13:09:02.035Z,0.82
2022-09-28T13:11:34.716Z,1.38
2022-09-28T13:14:26.843Z,1.23
2022-09-28T13:17:00.628Z,1.35
2022-09-28T13:19:34.778Z,1.42
2022-09-28T13:22:14.737Z,1.10
2022-09-28T13:24:44.337Z,2.15
2022-09-28T13:27:16.083Z,3.20
2022-09-28T13:29:45.805Z,1.63
2022-09-28T13:32:15.216Z,7.82
2022-09-28T13:34:43.404Z,5.88
2022-09-28T13:37:23.077Z,4.40
2022-09-28T13:39:53.248Z,6.63
2022-09-28T13:42:51.208Z,8.00
2022-09-28T13:45:58.981Z,2.28
2022-09-28T13:48:38.526Z,1.92
2022-09-28T13:51:13.614Z,2.35
2022-09-28T13:54:04.547Z,3.95
2022-09-28T13:56:38.941Z,5.53
2022-09-28T13:59:15.124Z,2.13
2022-09-28T14:01:47.116Z,15.75
2022-09-28T14:04:21.015Z,1.42
2022-09-28T14:06:55.503Z,21.52
2022-09-28T14:09:41.240Z,3.15
2022-09-28T14:12:29.725Z,4.75
2022-09-28T14:14:58.365Z,6.78
2022-09-28T14:17:51.387Z,2.90
2022-09-28T14:20:25.096Z,6.43
2022-09-28T14:23:25.423Z,2.30
2022-09-28T14:26:05.798Z,2.47
2022-09-28T14:28:45.626Z,2.65
2022-09-28T14:31:19.069Z,1.63
2022-09-28T14:33:56.938Z,2.38
2022-09-28T14:36:46.641Z,2.88
2022-09-28T14:39:38.808Z,1.65
2022-09-28T14:42:12.875Z,1.58
2022-09-28T14:45:19.191Z,1.80
2022-09-28T14:48:20.524Z,2.05
2022-09-28T14:50:50.110Z,2.17
2022-09-28T14:53:22.279Z,1.80
2022-09-28T14:55:52.496Z,1.40
2022-09-28T14:58:24.257Z,1.70
2022-09-28T15:00:57.981Z,1.90
2022-09-28T15:03:28.614Z,1.75
2022-09-28T15:05:56.857Z,1.35
2022-09-28T15:08:37.658Z,1.60
2022-09-28T15:11:06.320Z,1.65
2022-09-28T15:13:34.586Z,1.40
2022-09-28T15:16:09.941Z,1.08
2022-09-28T15:19:08.066Z,1.30
2022-09-28T15:21:37.967Z,1.40
2022-09-28T15:24:31.631Z,1.20
2022-09-28T15:27:00.051Z,1.17
2022-09-28T15:29:31.752Z,1.52
2022-09-28T15:32:00.195Z,1.60
2022-09-28T15:34:47.171Z,1.55
2022-09-28T15:37:16.712Z,1.30
2022-09-28T15:39:48.413Z,2.70
2022-09-28T15:42:18.601Z,2.25
2022-09-28T15:45:02.576Z,4.38
2022-09-28T15:47:32.121Z,3.08
2022-09-28T15:50:01.959Z,3.08
2022-09-28T15:52:36.633Z,3.70
2022-09-28T15:55:19.351Z,3.13
2022-09-28T15:57:48.462Z,2.90
2022-09-28T16:00:28.891Z,3.25
2022-09-28T16:03:01.738Z,3.55
2022-09-28T16:05:34.211Z,4.32
2022-09-28T16:08:03.559Z,3.67
2022-09-28T16:10:35.966Z,3.33
2022-09-28T16:13:17.229Z,4.03
2022-09-28T16:18:19.207Z,3.10
2022-09-28T16:20:49.734Z,3.50
2022-09-28T16:23:22.571Z,4.45
2022-09-28T16:25:56.755Z,4.63
2022-09-28T16:28:49.188Z,4.10
2022-09-28T16:31:27.970Z,18.85
2022-09-28T16:33:59.109Z,10.07
2022-09-28T16:38:58.352Z,14.30
2022-09-28T16:41:29.016Z,4.32
2022-09-28T16:44:01.158Z,4.32
2022-09-28T16:46:32.544Z,3.47
2022-09-28T16:49:03.350Z,5.05
2022-09-28T16:51:31.460Z,3.38
2022-09-28T16:54:19.133Z,4.10
2022-09-28T16:56:48.806Z,5.32
2022-09-28T16:59:17.052Z,4.97
2022-09-28T17:01:45.291Z,4.00
2022-09-28T17:04:13.629Z,5.25
2022-09-28T17:06:43.623Z,5.70
2022-09-28T17:09:13.948Z,6.60
2022-09-28T17:11:42.277Z,5.28
2022-09-28T17:14:11.957Z,6.05
2022-09-28T17:17:06.771Z,8.43
2022-09-28T17:19:29.941Z,7.97
2022-09-28T17:21:58.347Z,7.57
2022-09-28T17:24:26.658Z,7.30
2022-09-28T17:26:55.183Z,7.05
2022-09-28T17:29:24.698Z,6.72
2022-09-28T17:31:53.103Z,7.25
2022-09-28T17:34:21.811Z,8.27
2022-09-28T17:36:50.201Z,7.93
2022-09-28T17:39:19.639Z,8.23
2022-09-28T17:41:48.214Z,8.85
2022-09-28T17:44:16.766Z,10.00
2022-09-28T17:46:49.242Z,17.35
2022-09-28T17:49:18.996Z,19.60
2022-09-28T17:51:47.239Z,20.10
2022-09-28T17:54:19.454Z,18.48
2022-09-28T17:56:47.924Z,10.07
2022-09-28T17:59:18.700Z,12.57
2022-09-28T18:01:48.566Z,12.20
2022-09-28T18:04:33.768Z,10.25
2022-09-28T18:07:05.441Z,9.27
2022-09-28T18:09:33.888Z,9.13
2022-09-28T18:12:05.421Z,9.43
2022-09-28T18:14:36.002Z,10.55
2022-09-28T18:17:05.968Z,9.68
2022-09-28T18:19:34.211Z,9.60
2022-09-28T18:22:02.636Z,10.88
2022-09-28T18:24:32.677Z,9.30
2022-09-28T18:27:01.165Z,9.20
2022-09-28T18:29:33.038Z,9.20
2022-09-28T18:32:02.730Z,10.02
2022-09-28T18:34:32.476Z,9.48
2022-09-28T18:37:00.753Z,9.90
2022-09-28T18:39:29.280Z,11.00
2022-09-28T18:41:58.169Z,10.70
2022-09-28T18:44:26.916Z,10.95
2022-09-28T18:46:55.591Z,11.00
2022-09-28T18:49:24.468Z,11.65
2022-09-28T18:51:54.301Z,11.52
2022-09-28T18:54:23.017Z,9.82
2022-09-28T18:56:51.421Z,10.00
2022-09-28T18:59:20.053Z,16.02
2022-09-28T19:01:48.504Z,12.43
2022-09-28T19:04:16.925Z,10.10
2022-09-28T19:06:47.598Z,9.77
2022-09-28T19:09:19.877Z,12.75
2022-09-28T19:11:48.334Z,10.35
2022-09-28T19:14:17.202Z,8.98
2022-09-28T19:16:46.296Z,9.52
2022-09-28T19:19:19.413Z,9.02
2022-09-28T19:21:48.146Z,8.32
2022-09-28T19:24:19.344Z,26.35
2022-09-28T19:26:47.574Z,13.02
2022-09-28T19:29:16.294Z,14.23
2022-09-28T19:31:44.666Z,9.65
2022-09-28T19:34:14.234Z,11.30
2022-09-28T19:36:43.144Z,9.38
2022-09-28T19:39:14.666Z,9.20
2022-09-28T19:44:24.784Z,10.20
2022-09-28T19:46:54.751Z,10.00
2022-09-28T19:49:24.176Z,10.50
2022-09-28T19:52:13.761Z,12.30
2022-09-28T19:54:44.975Z,11.13
2022-09-28T19:57:16.053Z,10.60
2022-09-28T20:02:13.458Z,10.43
2022-09-28T20:04:41.567Z,9.35
2022-09-28T20:07:10.868Z,9.52
2022-09-28T20:09:39.448Z,10.50
2022-09-28T20:12:07.592Z,11.45
2022-09-28T20:14:39.658Z,10.35
2022-09-28T20:17:08.875Z,11.02
2022-09-28T20:19:37.114Z,11.13
2022-09-28T20:22:05.532Z,12.70
2022-09-28T20:24:33.941Z,11.40
2022-09-28T20:27:03.030Z,11.63
2022-09-28T20:29:33.580Z,11.65
2022-09-28T20:32:04.340Z,12.23
2022-09-28T20:34:33.613Z,11.95
2022-09-28T20:37:02.084Z,12.27
2022-09-28T20:39:30.377Z,12.50
2022-09-28T20:41:58.740Z,11.77
2022-09-28T20:44:26.861Z,10.80
2022-09-28T20:46:56.361Z,11.27
2022-09-28T20:49:27.273Z,11.50
2022-09-28T20:51:55.466Z,11.90
2022-09-28T20:54:23.468Z,13.82
2022-09-28T20:56:51.835Z,13.77
2022-09-28T20:59:20.346Z,13.55
2022-09-28T21:01:48.571Z,13.70
2022-09-28T21:04:16.895Z,13.63
2022-09-28T21:06:46.434Z,13.90
2022-09-28T21:09:14.650Z,13.05
2022-09-28T21:11:43.139Z,13.70
2022-09-28T21:14:11.245Z,12.23
2022-09-28T21:16:40.146Z,12.88
2022-09-28T21:19:08.413Z,11.13
2022-09-28T21:21:36.441Z,12.68
2022-09-28T21:24:06.162Z,11.90
2022-09-28T21:26:35.269Z,10.93
2022-09-28T21:29:05.072Z,11.05
2022-09-28T21:31:38.366Z,10.97
2022-09-28T21:34:06.944Z,10.15
2022-09-28T21:36:35.142Z,11.05
2022-09-28T21:39:07.007Z,10.20
2022-09-28T21:41:39.545Z,10.73
2022-09-28T21:44:08.233Z,12.25
2022-09-28T21:46:37.080Z,11.90
2022-09-28T21:49:07.579Z,12.13
2022-09-28T21:51:36.128Z,12.90
2022-09-28T21:54:04.355Z,12.93
2022-09-28T21:56:32.705Z,12.48
2022-09-28T21:59:02.566Z,12.48
2022-09-28T22:01:31.419Z,10.65
2022-09-28T22:03:59.858Z,12.15
2022-09-28T22:06:29.162Z,12.23
2022-09-28T22:08:57.938Z,10.90
2022-09-28T22:11:28.083Z,10.90
2022-09-28T22:13:57.492Z,11.70
2022-09-28T22:16:29.350Z,11.15
2022-09-28T22:18:58.022Z,11.80
2022-09-28T22:21:30.436Z,10.35
2022-09-28T22:24:01.268Z,9.77
2022-09-28T22:26:31.823Z,9.05
2022-09-28T22:29:01.434Z,8.63
2022-09-28T22:31:32.642Z,7.50
2022-09-28T22:34:00.769Z,8.15
2022-09-28T22:36:29.755Z,7.03
2022-09-28T22:38:58.599Z,6.88
2022-09-28T22:41:26.999Z,6.60
2022-09-28T22:43:55.767Z,5.97
2022-09-28T22:46:25.221Z,6.25
2022-09-28T22:48:56.087Z,6.32
2022-09-28T22:51:26.042Z,6.28
2022-09-28T22:53:54.266Z,6.43
2022-09-28T22:56:22.407Z,5.70
2022-09-28T22:58:50.856Z,6.82
2022-09-28T23:01:21.185Z,6.35
2022-09-28T23:03:50.371Z,5.97
2022-09-28T23:06:22.140Z,6.93
2022-09-28T23:08:51.906Z,6.45
2022-09-28T23:11:20.782Z,7.28
2022-09-28T23:13:52.558Z,5.93
2022-09-28T23:16:23.466Z,6.30
2022-09-28T23:18:52.568Z,5.85
2022-09-28T23:21:24.493Z,6.20
2022-09-28T23:23:54.421Z,5.38
2022-09-28T23:26:24.796Z,5.05
2022-09-28T23:28:53.477Z,5.50
2022-09-28T23:31:23.168Z,4.28
2022-09-28T23:33:51.510Z,4.50
2022-09-28T23:36:21.019Z,5.30
2022-09-28T23:38:49.462Z,5.03
2022-09-28T23:41:17.518Z,4.57
2022-09-28T23:43:45.740Z,5.15
2022-09-28T23:46:19.636Z,4.13
2022-09-28T23:48:48.862Z,5.32
2022-09-28T23:51:17.168Z,4.70
2022-09-28T23:53:46.800Z,4.97
2022-09-28T23:56:15.586Z,4.90
2022-09-28T23:58:44.033Z,4.88
